Aviation Digital Data Service (ADDS)

Output produced by METARs form (1332 UTC 26 February 2021)
found at http://www.aviationweather.gov/metar/data/
 
Forecast for: LIPZ (VENEZIA/TESSERA , IT)
Text: TAF LIPZ 261100Z 2612/2718 VRB05KT 8000 NSC
Forecast period: 1200 UTC 26 February 2021 to 0700 UTC 27 February 2021
Forecast type: FROM: standard forecast or significant change
Winds: variable direction winds at 6 MPH (5 knots; 2.6 m/s)
Visibility: 5 miles (8 km)
Ceiling: unknown
Clouds: missing
Weather: no significant weather forecast for this period
Text: TEMPO 2700/2706 3000 BR
Forecast period: 0000 to 0600 UTC 27 February 2021
Forecast type: TEMPORARY: The following changes expected for less than half the time period
Visibility: 1.86 miles (2.99 km)
Ceiling: unknown
Clouds: missing
Weather: BR  (mist)
Text: BECMG 2707/2709 07012KT
Forecast period: 0700 to 1800 UTC 27 February 2021
Forecast type: BECOMING: Conditions expected to become as follows by 0900 UTC 27 February 2021
Winds: from the ENE (70 degrees) at 14 MPH (12 knots; 6.2 m/s)
Visibility: 5 miles (8 km)
Ceiling: unknown
Clouds: missing
Weather: no significant weather forecast for this period